Terminal Aerodrome Forecast
Issued by NWS

Home | Current Version | Previous Version | Text Only | Print | Product List | Glossary On
Versions: 1 2 3 4 5 6 7 8 9 10 11 12 13 14 15 16 17 18 19 20 21 22 23 24 25
840
FTUS41 KRLX 230333 AAA
TAFCKB
TAF AMD
KCKB 230333Z 2304/2324 00000KT 3SM BR OVC003
     FM230500 09003KT 5SM BR OVC003
     FM231100 00000KT 3SM -SHRA BR OVC015
     FM231400 14004KT P6SM BKN025
     FM231700 20008KT P6SM BKN035=

USA.gov is the U.S. government's official web portal to all federal, state and local government web resources and services.